sensor_id;sensor_type;location;lat;lon;timestamp;P1;durP1;ratioP1;P2;durP2;ratioP2
16826;SDS011;8530;49.540;8.576;2022-08-21T00:02:13;7.67;;;5.23;;
16826;SDS011;8530;49.540;8.576;2022-08-21T00:04:40;7.83;;;5.70;;
16826;SDS011;8530;49.540;8.576;2022-08-21T00:07:07;11.20;;;4.70;;
16826;SDS011;8530;49.540;8.576;2022-08-21T00:09:35;7.37;;;5.07;;
16826;SDS011;8530;49.540;8.576;2022-08-21T00:12:03;7.77;;;4.87;;
16826;SDS011;8530;49.540;8.576;2022-08-21T00:14:31;5.83;;;4.50;;
16826;SDS011;8530;49.540;8.576;2022-08-21T00:16:59;11.30;;;4.77;;
16826;SDS011;8530;49.540;8.576;2022-08-21T00:19:26;7.20;;;4.80;;
16826;SDS011;8530;49.540;8.576;2022-08-21T00:21:53;8.13;;;5.10;;
16826;SDS011;8530;49.540;8.576;2022-08-21T00:24:21;5.90;;;5.13;;
16826;SDS011;8530;49.540;8.576;2022-08-21T00:26:50;8.10;;;5.70;;
16826;SDS011;8530;49.540;8.576;2022-08-21T00:29:17;8.77;;;5.20;;
16826;SDS011;8530;49.540;8.576;2022-08-21T00:31:44;8.27;;;5.33;;
16826;SDS011;8530;49.540;8.576;2022-08-21T00:34:12;8.57;;;5.00;;
16826;SDS011;8530;49.540;8.576;2022-08-21T00:36:39;8.50;;;5.10;;
16826;SDS011;8530;49.540;8.576;2022-08-21T00:39:07;10.87;;;5.00;;
16826;SDS011;8530;49.540;8.576;2022-08-21T00:41:35;5.93;;;4.73;;
16826;SDS011;8530;49.540;8.576;2022-08-21T00:44:04;7.30;;;6.07;;
16826;SDS011;8530;49.540;8.576;2022-08-21T00:46:31;5.43;;;4.93;;
16826;SDS011;8530;49.540;8.576;2022-08-21T00:48:58;7.90;;;5.10;;
16826;SDS011;8530;49.540;8.576;2022-08-21T00:51:25;7.37;;;4.80;;
16826;SDS011;8530;49.540;8.576;2022-08-21T00:53:59;6.00;;;4.90;;
16826;SDS011;8530;49.540;8.576;2022-08-21T00:56:28;4.83;;;4.27;;
16826;SDS011;8530;49.540;8.576;2022-08-21T00:58:55;12.70;;;5.30;;
16826;SDS011;8530;49.540;8.576;2022-08-21T01:01:25;10.67;;;4.93;;
16826;SDS011;8530;49.540;8.576;2022-08-21T01:03:52;8.30;;;5.93;;
16826;SDS011;8530;49.540;8.576;2022-08-21T01:06:19;7.50;;;5.10;;
16826;SDS011;8530;49.540;8.576;2022-08-21T01:08:46;13.80;;;5.80;;
16826;SDS011;8530;49.540;8.576;2022-08-21T01:11:14;14.23;;;6.20;;
16826;SDS011;8530;49.540;8.576;2022-08-21T01:13:41;9.13;;;6.17;;
16826;SDS011;8530;49.540;8.576;2022-08-21T01:16:11;8.20;;;6.27;;
16826;SDS011;8530;49.540;8.576;2022-08-21T01:18:42;7.23;;;6.10;;
16826;SDS011;8530;49.540;8.576;2022-08-21T01:21:12;7.83;;;5.80;;
16826;SDS011;8530;49.540;8.576;2022-08-21T01:23:42;20.63;;;6.10;;
16826;SDS011;8530;49.540;8.576;2022-08-21T01:26:11;7.70;;;6.90;;
16826;SDS011;8530;49.540;8.576;2022-08-21T01:28:40;10.43;;;7.43;;
16826;SDS011;8530;49.540;8.576;2022-08-21T01:31:10;8.80;;;6.60;;
16826;SDS011;8530;49.540;8.576;2022-08-21T01:33:40;8.50;;;5.83;;
16826;SDS011;8530;49.540;8.576;2022-08-21T01:36:07;9.10;;;6.70;;
16826;SDS011;8530;49.540;8.576;2022-08-21T01:38:35;11.13;;;6.90;;
16826;SDS011;8530;49.540;8.576;2022-08-21T01:41:02;9.80;;;6.10;;
16826;SDS011;8530;49.540;8.576;2022-08-21T01:43:29;7.80;;;5.77;;
16826;SDS011;8530;49.540;8.576;2022-08-21T01:45:56;7.23;;;5.93;;
16826;SDS011;8530;49.540;8.576;2022-08-21T01:48:22;17.03;;;5.50;;
16826;SDS011;8530;49.540;8.576;2022-08-21T01:50:49;7.27;;;5.40;;
16826;SDS011;8530;49.540;8.576;2022-08-21T01:53:16;7.27;;;6.17;;
16826;SDS011;8530;49.540;8.576;2022-08-21T01:55:44;7.43;;;6.73;;
16826;SDS011;8530;49.540;8.576;2022-08-21T01:58:10;7.10;;;6.17;;
16826;SDS011;8530;49.540;8.576;2022-08-21T02:00:37;13.33;;;7.63;;
16826;SDS011;8530;49.540;8.576;2022-08-21T02:03:04;7.80;;;6.80;;
16826;SDS011;8530;49.540;8.576;2022-08-21T02:05:31;6.87;;;6.20;;
16826;SDS011;8530;49.540;8.576;2022-08-21T02:07:58;8.70;;;6.63;;
16826;SDS011;8530;49.540;8.576;2022-08-21T02:10:26;10.30;;;6.80;;
16826;SDS011;8530;49.540;8.576;2022-08-21T02:12:56;7.33;;;6.27;;
16826;SDS011;8530;49.540;8.576;2022-08-21T02:15:24;7.90;;;6.17;;
16826;SDS011;8530;49.540;8.576;2022-08-21T02:17:52;6.80;;;6.03;;
16826;SDS011;8530;49.540;8.576;2022-08-21T02:20:22;11.37;;;8.10;;
16826;SDS011;8530;49.540;8.576;2022-08-21T02:22:51;7.53;;;6.73;;
16826;SDS011;8530;49.540;8.576;2022-08-21T02:25:19;11.17;;;6.77;;
16826;SDS011;8530;49.540;8.576;2022-08-21T02:27:47;7.23;;;5.97;;
16826;SDS011;8530;49.540;8.576;2022-08-21T02:30:17;7.10;;;5.60;;
16826;SDS011;8530;49.540;8.576;2022-08-21T02:32:45;7.07;;;6.10;;
16826;SDS011;8530;49.540;8.576;2022-08-21T02:35:12;9.23;;;5.60;;
16826;SDS011;8530;49.540;8.576;2022-08-21T02:37:45;8.10;;;6.50;;
16826;SDS011;8530;49.540;8.576;2022-08-21T02:40:14;6.13;;;5.43;;
16826;SDS011;8530;49.540;8.576;2022-08-21T02:42:43;9.70;;;5.77;;
16826;SDS011;8530;49.540;8.576;2022-08-21T02:45:11;8.17;;;6.30;;
16826;SDS011;8530;49.540;8.576;2022-08-21T02:47:42;8.30;;;6.53;;
16826;SDS011;8530;49.540;8.576;2022-08-21T02:50:13;8.93;;;6.27;;
16826;SDS011;8530;49.540;8.576;2022-08-21T02:52:43;7.23;;;6.50;;
16826;SDS011;8530;49.540;8.576;2022-08-21T02:55:10;9.90;;;6.03;;
16826;SDS011;8530;49.540;8.576;2022-08-21T02:57:37;9.37;;;7.30;;
16826;SDS011;8530;49.540;8.576;2022-08-21T03:00:04;8.00;;;6.80;;
16826;SDS011;8530;49.540;8.576;2022-08-21T03:02:31;10.13;;;7.70;;
16826;SDS011;8530;49.540;8.576;2022-08-21T03:05:01;7.83;;;6.67;;
16826;SDS011;8530;49.540;8.576;2022-08-21T03:07:28;11.20;;;7.10;;
16826;SDS011;8530;49.540;8.576;2022-08-21T03:09:55;6.73;;;6.00;;
16826;SDS011;8530;49.540;8.576;2022-08-21T03:12:22;8.23;;;6.50;;
16826;SDS011;8530;49.540;8.576;2022-08-21T03:14:48;7.03;;;6.33;;
16826;SDS011;8530;49.540;8.576;2022-08-21T03:17:15;7.60;;;6.20;;
16826;SDS011;8530;49.540;8.576;2022-08-21T03:19:42;9.13;;;6.07;;
16826;SDS011;8530;49.540;8.576;2022-08-21T03:22:10;7.37;;;5.63;;
16826;SDS011;8530;49.540;8.576;2022-08-21T03:24:37;6.43;;;5.50;;
16826;SDS011;8530;49.540;8.576;2022-08-21T03:27:03;7.60;;;6.27;;
16826;SDS011;8530;49.540;8.576;2022-08-21T03:29:30;6.80;;;5.90;;
16826;SDS011;8530;49.540;8.576;2022-08-21T03:31:57;8.13;;;7.33;;
16826;SDS011;8530;49.540;8.576;2022-08-21T03:34:24;8.73;;;7.60;;
16826;SDS011;8530;49.540;8.576;2022-08-21T03:36:51;8.73;;;7.10;;
16826;SDS011;8530;49.540;8.576;2022-08-21T03:39:19;9.63;;;8.00;;
16826;SDS011;8530;49.540;8.576;2022-08-21T03:41:45;16.43;;;8.30;;
16826;SDS011;8530;49.540;8.576;2022-08-21T03:44:13;7.73;;;6.40;;
16826;SDS011;8530;49.540;8.576;2022-08-21T03:46:39;9.50;;;7.80;;
16826;SDS011;8530;49.540;8.576;2022-08-21T03:49:06;10.90;;;6.80;;
16826;SDS011;8530;49.540;8.576;2022-08-21T03:51:33;8.90;;;7.30;;
16826;SDS011;8530;49.540;8.576;2022-08-21T03:54:00;8.53;;;6.80;;
16826;SDS011;8530;49.540;8.576;2022-08-21T03:56:28;12.93;;;6.83;;
16826;SDS011;8530;49.540;8.576;2022-08-21T03:58:55;11.90;;;6.93;;
16826;SDS011;8530;49.540;8.576;2022-08-21T04:01:22;8.73;;;6.90;;
16826;SDS011;8530;49.540;8.576;2022-08-21T04:03:49;8.60;;;6.20;;
16826;SDS011;8530;49.540;8.576;2022-08-21T04:06:16;9.80;;;6.70;;
16826;SDS011;8530;49.540;8.576;2022-08-21T04:08:43;8.13;;;6.43;;
16826;SDS011;8530;49.540;8.576;2022-08-21T04:11:09;13.90;;;7.50;;
16826;SDS011;8530;49.540;8.576;2022-08-21T04:13:37;8.17;;;7.10;;
16826;SDS011;8530;49.540;8.576;2022-08-21T04:16:05;8.77;;;7.83;;
16826;SDS011;8530;49.540;8.576;2022-08-21T04:18:33;8.73;;;7.83;;
16826;SDS011;8530;49.540;8.576;2022-08-21T04:20:59;10.37;;;7.20;;
16826;SDS011;8530;49.540;8.576;2022-08-21T04:23:28;9.50;;;7.67;;
16826;SDS011;8530;49.540;8.576;2022-08-21T04:25:55;7.93;;;7.10;;
16826;SDS011;8530;49.540;8.576;2022-08-21T04:28:23;11.60;;;8.23;;
16826;SDS011;8530;49.540;8.576;2022-08-21T04:30:51;7.47;;;6.67;;
16826;SDS011;8530;49.540;8.576;2022-08-21T04:33:18;6.90;;;6.17;;
16826;SDS011;8530;49.540;8.576;2022-08-21T04:35:45;7.77;;;6.70;;
16826;SDS011;8530;49.540;8.576;2022-08-21T04:38:12;7.90;;;7.10;;
16826;SDS011;8530;49.540;8.576;2022-08-21T04:40:39;11.10;;;7.47;;
16826;SDS011;8530;49.540;8.576;2022-08-21T04:43:06;10.93;;;8.37;;
16826;SDS011;8530;49.540;8.576;2022-08-21T04:45:35;10.60;;;8.10;;
16826;SDS011;8530;49.540;8.576;2022-08-21T04:48:06;8.50;;;7.67;;
16826;SDS011;8530;49.540;8.576;2022-08-21T04:50:36;9.33;;;7.77;;
16826;SDS011;8530;49.540;8.576;2022-08-21T04:53:06;13.80;;;8.40;;
16826;SDS011;8530;49.540;8.576;2022-08-21T04:55:36;8.83;;;7.93;;
16826;SDS011;8530;49.540;8.576;2022-08-21T04:58:03;15.97;;;7.23;;
16826;SDS011;8530;49.540;8.576;2022-08-21T05:00:31;9.50;;;7.10;;
16826;SDS011;8530;49.540;8.576;2022-08-21T05:02:58;10.13;;;8.57;;
16826;SDS011;8530;49.540;8.576;2022-08-21T05:05:28;10.17;;;7.87;;
16826;SDS011;8530;49.540;8.576;2022-08-21T05:07:55;9.37;;;7.77;;
16826;SDS011;8530;49.540;8.576;2022-08-21T05:10:25;12.53;;;8.10;;
16826;SDS011;8530;49.540;8.576;2022-08-21T05:12:52;8.83;;;7.30;;
16826;SDS011;8530;49.540;8.576;2022-08-21T05:15:20;9.60;;;7.80;;
16826;SDS011;8530;49.540;8.576;2022-08-21T05:17:46;15.03;;;9.03;;
16826;SDS011;8530;49.540;8.576;2022-08-21T05:20:15;8.90;;;6.77;;
16826;SDS011;8530;49.540;8.576;2022-08-21T05:22:44;8.87;;;8.00;;
16826;SDS011;8530;49.540;8.576;2022-08-21T05:25:11;9.27;;;8.13;;
16826;SDS011;8530;49.540;8.576;2022-08-21T05:27:38;10.13;;;6.33;;
16826;SDS011;8530;49.540;8.576;2022-08-21T05:30:05;10.47;;;7.70;;
16826;SDS011;8530;49.540;8.576;2022-08-21T05:32:34;10.37;;;7.83;;
16826;SDS011;8530;49.540;8.576;2022-08-21T05:35:02;11.20;;;7.07;;
16826;SDS011;8530;49.540;8.576;2022-08-21T05:37:29;8.97;;;7.27;;
16826;SDS011;8530;49.540;8.576;2022-08-21T05:39:57;7.87;;;6.87;;
16826;SDS011;8530;49.540;8.576;2022-08-21T05:42:25;7.63;;;6.80;;
16826;SDS011;8530;49.540;8.576;2022-08-21T05:44:52;13.30;;;8.50;;
16826;SDS011;8530;49.540;8.576;2022-08-21T05:47:19;9.43;;;7.00;;
16826;SDS011;8530;49.540;8.576;2022-08-21T05:49:46;8.13;;;6.73;;
16826;SDS011;8530;49.540;8.576;2022-08-21T05:52:17;9.43;;;7.20;;
16826;SDS011;8530;49.540;8.576;2022-08-21T05:54:45;10.20;;;6.67;;
16826;SDS011;8530;49.540;8.576;2022-08-21T05:57:13;8.00;;;6.60;;
16826;SDS011;8530;49.540;8.576;2022-08-21T05:59:39;10.13;;;6.43;;
16826;SDS011;8530;49.540;8.576;2022-08-21T06:02:06;9.20;;;6.40;;
16826;SDS011;8530;49.540;8.576;2022-08-21T06:04:35;11.90;;;7.70;;
16826;SDS011;8530;49.540;8.576;2022-08-21T06:07:02;11.40;;;6.20;;
16826;SDS011;8530;49.540;8.576;2022-08-21T06:09:29;11.90;;;5.60;;
16826;SDS011;8530;49.540;8.576;2022-08-21T06:11:56;7.50;;;6.37;;
16826;SDS011;8530;49.540;8.576;2022-08-21T06:14:24;6.77;;;5.97;;
16826;SDS011;8530;49.540;8.576;2022-08-21T06:16:51;9.87;;;6.37;;
16826;SDS011;8530;49.540;8.576;2022-08-21T06:19:17;8.43;;;6.63;;
16826;SDS011;8530;49.540;8.576;2022-08-21T06:21:44;10.07;;;7.50;;
16826;SDS011;8530;49.540;8.576;2022-08-21T06:24:11;18.93;;;7.60;;
16826;SDS011;8530;49.540;8.576;2022-08-21T06:26:38;15.20;;;7.47;;
16826;SDS011;8530;49.540;8.576;2022-08-21T06:29:04;12.30;;;6.20;;
16826;SDS011;8530;49.540;8.576;2022-08-21T06:31:32;10.33;;;6.07;;
16826;SDS011;8530;49.540;8.576;2022-08-21T06:33:59;13.47;;;6.33;;
16826;SDS011;8530;49.540;8.576;2022-08-21T06:36:26;13.00;;;5.90;;
16826;SDS011;8530;49.540;8.576;2022-08-21T06:38:53;7.75;;;5.88;;
16826;SDS011;8530;49.540;8.576;2022-08-21T06:41:19;7.30;;;5.07;;
16826;SDS011;8530;49.540;8.576;2022-08-21T06:43:47;9.02;;;5.45;;
16826;SDS011;8530;49.540;8.576;2022-08-21T06:46:14;9.98;;;6.03;;
16826;SDS011;8530;49.540;8.576;2022-08-21T06:48:42;9.55;;;6.07;;
16826;SDS011;8530;49.540;8.576;2022-08-21T06:51:08;11.48;;;5.35;;
16826;SDS011;8530;49.540;8.576;2022-08-21T06:53:35;14.13;;;6.70;;
16826;SDS011;8530;49.540;8.576;2022-08-21T06:56:02;7.63;;;4.63;;
16826;SDS011;8530;49.540;8.576;2022-08-21T06:58:29;9.82;;;5.93;;
16826;SDS011;8530;49.540;8.576;2022-08-21T07:00:56;14.95;;;6.25;;
16826;SDS011;8530;49.540;8.576;2022-08-21T07:03:23;8.82;;;6.18;;
16826;SDS011;8530;49.540;8.576;2022-08-21T07:05:54;13.90;;;6.30;;
16826;SDS011;8530;49.540;8.576;2022-08-21T07:08:25;8.60;;;4.72;;
16826;SDS011;8530;49.540;8.576;2022-08-21T07:10:53;11.23;;;6.00;;
16826;SDS011;8530;49.540;8.576;2022-08-21T07:13:22;9.65;;;5.70;;
16826;SDS011;8530;49.540;8.576;2022-08-21T07:15:49;9.27;;;5.93;;
16826;SDS011;8530;49.540;8.576;2022-08-21T07:18:16;14.02;;;6.00;;
16826;SDS011;8530;49.540;8.576;2022-08-21T07:20:43;18.42;;;6.82;;
16826;SDS011;8530;49.540;8.576;2022-08-21T07:23:12;8.70;;;5.60;;
16826;SDS011;8530;49.540;8.576;2022-08-21T07:25:44;10.88;;;6.43;;
16826;SDS011;8530;49.540;8.576;2022-08-21T07:28:11;11.88;;;6.20;;
16826;SDS011;8530;49.540;8.576;2022-08-21T07:30:38;13.18;;;6.30;;
16826;SDS011;8530;49.540;8.576;2022-08-21T07:33:04;9.07;;;6.15;;
16826;SDS011;8530;49.540;8.576;2022-08-21T07:35:31;13.77;;;6.65;;
16826;SDS011;8530;49.540;8.576;2022-08-21T07:37:58;17.77;;;6.28;;
16826;SDS011;8530;49.540;8.576;2022-08-21T07:40:26;12.98;;;5.53;;
16826;SDS011;8530;49.540;8.576;2022-08-21T07:42:52;13.35;;;5.80;;
16826;SDS011;8530;49.540;8.576;2022-08-21T07:45:20;11.13;;;5.90;;
16826;SDS011;8530;49.540;8.576;2022-08-21T07:47:49;8.25;;;4.32;;
16826;SDS011;8530;49.540;8.576;2022-08-21T07:50:16;9.45;;;5.00;;
16826;SDS011;8530;49.540;8.576;2022-08-21T07:52:44;10.43;;;5.32;;
16826;SDS011;8530;49.540;8.576;2022-08-21T07:55:12;10.68;;;4.65;;
16826;SDS011;8530;49.540;8.576;2022-08-21T07:57:42;8.90;;;5.57;;
16826;SDS011;8530;49.540;8.576;2022-08-21T08:00:10;10.65;;;5.88;;
16826;SDS011;8530;49.540;8.576;2022-08-21T08:02:39;10.32;;;5.40;;
16826;SDS011;8530;49.540;8.576;2022-08-21T08:05:08;11.35;;;4.85;;
16826;SDS011;8530;49.540;8.576;2022-08-21T08:07:37;7.80;;;5.90;;
16826;SDS011;8530;49.540;8.576;2022-08-21T08:10:04;7.95;;;5.15;;
16826;SDS011;8530;49.540;8.576;2022-08-21T08:12:32;10.40;;;5.05;;
16826;SDS011;8530;49.540;8.576;2022-08-21T08:15:00;8.82;;;4.55;;
16826;SDS011;8530;49.540;8.576;2022-08-21T08:17:29;6.65;;;4.35;;
16826;SDS011;8530;49.540;8.576;2022-08-21T08:19:57;7.50;;;4.82;;
16826;SDS011;8530;49.540;8.576;2022-08-21T08:22:25;10.40;;;5.18;;
16826;SDS011;8530;49.540;8.576;2022-08-21T08:24:53;7.78;;;4.43;;
16826;SDS011;8530;49.540;8.576;2022-08-21T08:27:21;6.57;;;4.53;;
16826;SDS011;8530;49.540;8.576;2022-08-21T08:29:48;5.53;;;3.85;;
16826;SDS011;8530;49.540;8.576;2022-08-21T08:32:17;8.85;;;4.45;;
16826;SDS011;8530;49.540;8.576;2022-08-21T08:34:45;7.65;;;4.20;;
16826;SDS011;8530;49.540;8.576;2022-08-21T08:37:13;6.50;;;4.45;;
16826;SDS011;8530;49.540;8.576;2022-08-21T08:39:41;7.28;;;4.43;;
16826;SDS011;8530;49.540;8.576;2022-08-21T08:42:09;10.35;;;4.72;;
16826;SDS011;8530;49.540;8.576;2022-08-21T08:44:39;6.60;;;4.00;;
16826;SDS011;8530;49.540;8.576;2022-08-21T08:47:06;8.57;;;4.68;;
16826;SDS011;8530;49.540;8.576;2022-08-21T08:49:36;10.63;;;5.30;;
16826;SDS011;8530;49.540;8.576;2022-08-21T08:52:10;7.13;;;4.18;;
16826;SDS011;8530;49.540;8.576;2022-08-21T08:54:44;7.57;;;4.88;;
16826;SDS011;8530;49.540;8.576;2022-08-21T08:57:15;12.15;;;4.97;;
16826;SDS011;8530;49.540;8.576;2022-08-21T08:59:50;7.00;;;4.90;;
16826;SDS011;8530;49.540;8.576;2022-08-21T09:02:18;7.90;;;5.13;;
16826;SDS011;8530;49.540;8.576;2022-08-21T09:04:47;6.83;;;4.80;;
16826;SDS011;8530;49.540;8.576;2022-08-21T09:07:16;7.73;;;5.83;;
16826;SDS011;8530;49.540;8.576;2022-08-21T09:09:54;6.53;;;4.73;;
16826;SDS011;8530;49.540;8.576;2022-08-21T09:12:31;8.73;;;5.60;;
16826;SDS011;8530;49.540;8.576;2022-08-21T09:15:12;5.57;;;4.10;;
16826;SDS011;8530;49.540;8.576;2022-08-21T09:17:52;8.43;;;4.67;;
16826;SDS011;8530;49.540;8.576;2022-08-21T09:20:52;10.30;;;5.17;;
16826;SDS011;8530;49.540;8.576;2022-08-21T09:23:35;8.13;;;5.03;;
16826;SDS011;8530;49.540;8.576;2022-08-21T09:26:11;10.23;;;4.40;;
16826;SDS011;8530;49.540;8.576;2022-08-21T09:28:40;6.43;;;4.40;;
16826;SDS011;8530;49.540;8.576;2022-08-21T09:31:08;10.87;;;3.80;;
16826;SDS011;8530;49.540;8.576;2022-08-21T09:33:38;10.63;;;5.90;;
16826;SDS011;8530;49.540;8.576;2022-08-21T09:36:06;7.23;;;4.60;;
16826;SDS011;8530;49.540;8.576;2022-08-21T09:38:34;5.93;;;4.43;;
16826;SDS011;8530;49.540;8.576;2022-08-21T09:41:03;6.67;;;3.90;;
16826;SDS011;8530;49.540;8.576;2022-08-21T09:43:32;12.67;;;5.13;;
16826;SDS011;8530;49.540;8.576;2022-08-21T09:46:03;11.60;;;3.73;;
16826;SDS011;8530;49.540;8.576;2022-08-21T09:48:38;10.00;;;3.50;;
16826;SDS011;8530;49.540;8.576;2022-08-21T09:51:09;9.60;;;4.30;;
16826;SDS011;8530;49.540;8.576;2022-08-21T09:53:38;7.57;;;4.53;;
16826;SDS011;8530;49.540;8.576;2022-08-21T09:56:18;12.33;;;4.47;;
16826;SDS011;8530;49.540;8.576;2022-08-21T09:59:14;8.00;;;5.23;;
16826;SDS011;8530;49.540;8.576;2022-08-21T10:01:43;8.20;;;4.83;;
16826;SDS011;8530;49.540;8.576;2022-08-21T10:04:11;8.93;;;5.37;;
16826;SDS011;8530;49.540;8.576;2022-08-21T10:06:39;13.53;;;4.60;;
16826;SDS011;8530;49.540;8.576;2022-08-21T10:09:07;9.80;;;3.90;;
16826;SDS011;8530;49.540;8.576;2022-08-21T10:11:36;6.53;;;4.20;;
16826;SDS011;8530;49.540;8.576;2022-08-21T10:14:07;9.80;;;3.93;;
16826;SDS011;8530;49.540;8.576;2022-08-21T10:16:46;5.93;;;3.87;;
16826;SDS011;8530;49.540;8.576;2022-08-21T10:19:24;8.67;;;4.53;;
16826;SDS011;8530;49.540;8.576;2022-08-21T10:22:00;6.83;;;3.83;;
16826;SDS011;8530;49.540;8.576;2022-08-21T10:24:37;6.47;;;3.70;;
16826;SDS011;8530;49.540;8.576;2022-08-21T10:27:14;10.00;;;3.87;;
16826;SDS011;8530;49.540;8.576;2022-08-21T10:29:49;10.20;;;4.30;;
16826;SDS011;8530;49.540;8.576;2022-08-21T10:32:26;11.23;;;3.77;;
16826;SDS011;8530;49.540;8.576;2022-08-21T10:35:00;5.33;;;3.30;;
16826;SDS011;8530;49.540;8.576;2022-08-21T10:37:37;5.80;;;3.70;;
16826;SDS011;8530;49.540;8.576;2022-08-21T10:40:16;8.00;;;3.40;;
16826;SDS011;8530;49.540;8.576;2022-08-21T10:42:54;8.60;;;4.60;;
16826;SDS011;8530;49.540;8.576;2022-08-21T10:45:32;6.83;;;3.40;;
16826;SDS011;8530;49.540;8.576;2022-08-21T10:48:08;8.40;;;3.40;;
16826;SDS011;8530;49.540;8.576;2022-08-21T10:50:44;8.07;;;3.60;;
16826;SDS011;8530;49.540;8.576;2022-08-21T10:53:28;5.37;;;3.40;;
16826;SDS011;8530;49.540;8.576;2022-08-21T10:56:12;14.97;;;3.10;;
16826;SDS011;8530;49.540;8.576;2022-08-21T10:58:45;5.47;;;2.67;;
16826;SDS011;8530;49.540;8.576;2022-08-21T11:01:19;8.00;;;3.27;;
16826;SDS011;8530;49.540;8.576;2022-08-21T11:03:53;6.17;;;3.20;;
16826;SDS011;8530;49.540;8.576;2022-08-21T11:06:28;7.47;;;3.40;;
16826;SDS011;8530;49.540;8.576;2022-08-21T11:09:05;7.13;;;3.60;;
16826;SDS011;8530;49.540;8.576;2022-08-21T11:11:38;14.17;;;3.73;;
16826;SDS011;8530;49.540;8.576;2022-08-21T11:14:11;8.53;;;2.97;;
16826;SDS011;8530;49.540;8.576;2022-08-21T11:16:45;4.80;;;3.10;;
16826;SDS011;8530;49.540;8.576;2022-08-21T11:19:20;6.17;;;2.80;;
16826;SDS011;8530;49.540;8.576;2022-08-21T11:21:55;11.20;;;4.57;;
16826;SDS011;8530;49.540;8.576;2022-08-21T11:24:30;6.80;;;3.40;;
16826;SDS011;8530;49.540;8.576;2022-08-21T11:27:03;5.90;;;2.93;;
16826;SDS011;8530;49.540;8.576;2022-08-21T11:29:35;6.87;;;3.20;;
16826;SDS011;8530;49.540;8.576;2022-08-21T11:32:12;10.47;;;3.40;;
16826;SDS011;8530;49.540;8.576;2022-08-21T11:35:01;5.60;;;3.27;;
16826;SDS011;8530;49.540;8.576;2022-08-21T11:37:42;7.77;;;3.57;;
16826;SDS011;8530;49.540;8.576;2022-08-21T11:40:23;6.43;;;2.77;;
16826;SDS011;8530;49.540;8.576;2022-08-21T11:43:00;7.93;;;3.43;;
16826;SDS011;8530;49.540;8.576;2022-08-21T11:45:39;8.20;;;3.00;;
16826;SDS011;8530;49.540;8.576;2022-08-21T11:48:12;5.37;;;2.93;;
16826;SDS011;8530;49.540;8.576;2022-08-21T11:50:45;5.33;;;2.83;;
16826;SDS011;8530;49.540;8.576;2022-08-21T11:53:17;7.20;;;3.30;;
16826;SDS011;8530;49.540;8.576;2022-08-21T11:55:52;5.43;;;2.83;;
16826;SDS011;8530;49.540;8.576;2022-08-21T11:58:26;7.20;;;3.40;;
16826;SDS011;8530;49.540;8.576;2022-08-21T12:00:57;7.00;;;2.73;;
16826;SDS011;8530;49.540;8.576;2022-08-21T12:03:28;6.20;;;3.13;;
16826;SDS011;8530;49.540;8.576;2022-08-21T12:05:58;4.53;;;2.43;;
16826;SDS011;8530;49.540;8.576;2022-08-21T12:08:29;6.33;;;2.90;;
16826;SDS011;8530;49.540;8.576;2022-08-21T12:11:02;6.40;;;2.83;;
16826;SDS011;8530;49.540;8.576;2022-08-21T12:13:32;8.90;;;2.80;;
16826;SDS011;8530;49.540;8.576;2022-08-21T12:19:02;6.53;;;3.07;;
16826;SDS011;8530;49.540;8.576;2022-08-21T12:21:30;6.50;;;2.60;;
16826;SDS011;8530;49.540;8.576;2022-08-21T12:24:15;8.03;;;3.57;;
16826;SDS011;8530;49.540;8.576;2022-08-21T12:27:26;7.90;;;3.90;;
16826;SDS011;8530;49.540;8.576;2022-08-21T12:29:59;5.20;;;3.00;;
16826;SDS011;8530;49.540;8.576;2022-08-21T12:32:42;3.97;;;2.93;;
16826;SDS011;8530;49.540;8.576;2022-08-21T12:35:12;7.43;;;3.43;;
16826;SDS011;8530;49.540;8.576;2022-08-21T12:37:42;4.97;;;2.70;;
16826;SDS011;8530;49.540;8.576;2022-08-21T12:40:13;7.57;;;4.10;;
16826;SDS011;8530;49.540;8.576;2022-08-21T12:42:48;4.27;;;3.53;;
16826;SDS011;8530;49.540;8.576;2022-08-21T12:45:18;8.63;;;3.83;;
16826;SDS011;8530;49.540;8.576;2022-08-21T12:47:48;6.73;;;2.93;;
16826;SDS011;8530;49.540;8.576;2022-08-21T12:50:19;8.37;;;4.10;;
16826;SDS011;8530;49.540;8.576;2022-08-21T12:52:51;7.87;;;3.40;;
16826;SDS011;8530;49.540;8.576;2022-08-21T12:55:27;5.73;;;2.73;;
16826;SDS011;8530;49.540;8.576;2022-08-21T12:57:58;3.97;;;3.00;;
16826;SDS011;8530;49.540;8.576;2022-08-21T13:00:26;6.70;;;3.93;;
16826;SDS011;8530;49.540;8.576;2022-08-21T13:02:55;5.43;;;2.80;;
16826;SDS011;8530;49.540;8.576;2022-08-21T13:05:30;5.50;;;3.60;;
16826;SDS011;8530;49.540;8.576;2022-08-21T13:07:59;5.63;;;3.23;;
16826;SDS011;8530;49.540;8.576;2022-08-21T13:10:31;8.47;;;3.23;;
16826;SDS011;8530;49.540;8.576;2022-08-21T13:13:02;7.77;;;3.30;;
16826;SDS011;8530;49.540;8.576;2022-08-21T13:15:32;8.40;;;2.93;;
16826;SDS011;8530;49.540;8.576;2022-08-21T13:18:02;7.30;;;3.20;;
16826;SDS011;8530;49.540;8.576;2022-08-21T13:20:30;8.20;;;3.90;;
16826;SDS011;8530;49.540;8.576;2022-08-21T13:23:00;8.07;;;4.07;;
16826;SDS011;8530;49.540;8.576;2022-08-21T13:25:29;8.37;;;3.37;;
16826;SDS011;8530;49.540;8.576;2022-08-21T13:28:00;6.03;;;3.23;;
16826;SDS011;8530;49.540;8.576;2022-08-21T13:30:31;9.90;;;3.97;;
16826;SDS011;8530;49.540;8.576;2022-08-21T13:32:59;12.77;;;3.00;;
16826;SDS011;8530;49.540;8.576;2022-08-21T13:35:28;4.70;;;2.93;;
16826;SDS011;8530;49.540;8.576;2022-08-21T13:38:00;9.40;;;3.63;;
16826;SDS011;8530;49.540;8.576;2022-08-21T13:40:30;7.40;;;3.00;;
16826;SDS011;8530;49.540;8.576;2022-08-21T13:42:58;5.40;;;3.40;;
16826;SDS011;8530;49.540;8.576;2022-08-21T13:45:32;6.23;;;3.13;;
16826;SDS011;8530;49.540;8.576;2022-08-21T13:47:59;11.50;;;3.40;;
16826;SDS011;8530;49.540;8.576;2022-08-21T13:50:27;6.27;;;2.97;;
16826;SDS011;8530;49.540;8.576;2022-08-21T13:52:56;6.57;;;3.80;;
16826;SDS011;8530;49.540;8.576;2022-08-21T13:55:25;7.27;;;3.00;;
16826;SDS011;8530;49.540;8.576;2022-08-21T13:58:02;5.03;;;2.60;;
16826;SDS011;8530;49.540;8.576;2022-08-21T14:00:31;8.73;;;4.03;;
16826;SDS011;8530;49.540;8.576;2022-08-21T14:03:01;5.70;;;3.20;;
16826;SDS011;8530;49.540;8.576;2022-08-21T14:05:32;6.03;;;3.20;;
16826;SDS011;8530;49.540;8.576;2022-08-21T14:08:03;8.57;;;3.13;;
16826;SDS011;8530;49.540;8.576;2022-08-21T14:10:34;10.30;;;2.63;;
16826;SDS011;8530;49.540;8.576;2022-08-21T14:13:04;4.20;;;3.10;;
16826;SDS011;8530;49.540;8.576;2022-08-21T14:15:34;7.83;;;3.33;;
16826;SDS011;8530;49.540;8.576;2022-08-21T14:18:08;4.60;;;3.47;;
16826;SDS011;8530;49.540;8.576;2022-08-21T14:20:39;7.00;;;3.10;;
16826;SDS011;8530;49.540;8.576;2022-08-21T14:23:06;10.07;;;2.83;;
16826;SDS011;8530;49.540;8.576;2022-08-21T14:25:37;11.00;;;4.57;;
16826;SDS011;8530;49.540;8.576;2022-08-21T14:28:10;9.73;;;3.67;;
16826;SDS011;8530;49.540;8.576;2022-08-21T14:30:46;5.70;;;2.90;;
16826;SDS011;8530;49.540;8.576;2022-08-21T14:33:16;6.40;;;3.70;;
16826;SDS011;8530;49.540;8.576;2022-08-21T14:35:49;3.90;;;2.80;;
16826;SDS011;8530;49.540;8.576;2022-08-21T14:38:16;5.23;;;3.27;;
16826;SDS011;8530;49.540;8.576;2022-08-21T14:40:44;5.47;;;2.50;;
16826;SDS011;8530;49.540;8.576;2022-08-21T14:43:14;4.30;;;2.93;;
16826;SDS011;8530;49.540;8.576;2022-08-21T14:45:41;5.00;;;3.50;;
16826;SDS011;8530;49.540;8.576;2022-08-21T14:48:10;8.57;;;3.20;;
16826;SDS011;8530;49.540;8.576;2022-08-21T14:50:37;5.27;;;3.13;;
16826;SDS011;8530;49.540;8.576;2022-08-21T14:53:04;12.63;;;6.30;;
16826;SDS011;8530;49.540;8.576;2022-08-21T14:55:31;7.33;;;3.20;;
16826;SDS011;8530;49.540;8.576;2022-08-21T14:58:19;6.30;;;3.10;;
16826;SDS011;8530;49.540;8.576;2022-08-21T15:00:47;5.93;;;3.40;;
16826;SDS011;8530;49.540;8.576;2022-08-21T15:03:16;6.17;;;3.23;;
16826;SDS011;8530;49.540;8.576;2022-08-21T15:05:43;6.90;;;4.70;;
16826;SDS011;8530;49.540;8.576;2022-08-21T15:08:09;9.10;;;4.20;;
16826;SDS011;8530;49.540;8.576;2022-08-21T15:10:36;5.10;;;2.90;;
16826;SDS011;8530;49.540;8.576;2022-08-21T15:13:03;7.93;;;4.03;;
16826;SDS011;8530;49.540;8.576;2022-08-21T15:15:30;6.40;;;3.43;;
16826;SDS011;8530;49.540;8.576;2022-08-21T15:18:01;6.70;;;3.03;;